الصفحة الرئيسية
METAR-TAF:

METAR-TAF

مطار :

أنتاناناريفو, مدغشقر

دائرة عرض: 18-48S, خط طول: 047-29E, ارتفاع: 1279 متر

مراقبة الطقس الحالي

تاريخ ووقت الإصدار 33 دقيقة قبل الساعة 18:30UTC
ريح 5 عقدة من الشرق/الشمال الشرقي
درجة الحرارة 15°درجة مئوية
الرطوبة 77%
ضغط 1025 hPa
الرؤية 10 كم أو أكثر
غيوم قليلة على ارتفاع 1700 قدم

METAR: FMMI 051830Z 06005KT 9999 FEW017 15/11 Q1025 NOSIG

زمن: 22:03 (19:03 UTC)

توقعات

تاريخ ووقت الإصدار 2ساعات و 3 دقيقة قبل الساعة 17:00UTC
التوقعات صالحة من05 الساعة 18 UTC إلى 06 الساعة 24 UTC
ريح 4 عقدة من الشرق
الرؤية 10 كم أو أكثر
غيوم قليلة على ارتفاع 2000 قدم
نظرية الاحتمالات 30%
من 06 الساعة 01 UTC إلى 06 الساعة 05 UTC
الرؤية: 4000 متر
غشاء
أصبح
من 06 الساعة 08 UTC إلى 06 الساعة 10 UTC
ريح 14 عقدة من الجنوب الشرقي
أصبح
من 06 الساعة 18 UTC إلى 06 الساعة 20 UTC
ريح 4 عقدة من الشرق/الجنوب الشرقي

TAF: FMMI 051700Z 0518/0624 08004KT 9999 FEW020 PROB30 0601/0605 4000 BR BECMG 0608/0610 14014KT BECMG 0618/0620 12004KT

أرصاد الطقس والتوقعات من أكثر من 4000 مطار (تقارير الطقس للمطار METAR والتنبؤ بالطقس بالمطارTAF).

المحطات المتاحة هي النقط الصفراء والحمراء على الخريطة.

حرك المؤشر فوق النقطة لمعرفة اسم المحطة.

ثم انقر لمعرفة أرصاد وتوقعات الطقس.

لتغيير الخارطة: اضغط على الأزرار الخضراء مع رمز الصليب الأسود للتكبير. على الزر الأخضر مع شرطة للتصغير، أو على الأسهم الخضراء للخرائط المجاورة.


METAR-TAF: